CheckWX is a tool to help pilots better visualize weather data.  It is not intended as a substitute for an official pre-flight weather briefing.

17:26:09 UTC

LOWI METAR
Innsbruck Airport
Innsbruck, Austria
Current

36 mins ago

LOWI 181650Z 06010KT 360V090 9999 SCT080 24/11 Q1013 NOSIG
Observed
Jul-18 @ 16:50 UTC
Wind
  • 060° at 10 KTS
Visibility
10,000+ meters
Flight Rules
VFR
Cloud Levels
  • Scattered at 8,000' AGL
Temperature
24°C / 75°F
Dewpoint
11°C / 52°F
Humidity
44%
Altimeter
29.91" Hg
Pressure
1012.92 hPa
Previous

1 hour ago

LOWI 181620Z 07010KT 040V110 9999 SCT070 25/09 Q1013 NOSIG
Observed
Jul-18 @ 16:20 UTC
Wind
  • 070° at 10 KTS
Visibility
10,000+ meters
Flight Rules
VFR
Cloud Levels
  • Scattered at 7,000' AGL
Temperature
25°C / 77°F
Dewpoint
C / 48°F
Humidity
36%
Altimeter
29.91" Hg
Pressure
1012.92 hPa
Previous

2 hours ago

LOWI 181550Z 06010KT 030V090 9999 FEW070 FEW070TCU 25/10 Q1013 NOSIG
Observed
Jul-18 @ 15:50 UTC
Wind
  • 060° at 10 KTS
Visibility
10,000+ meters
Flight Rules
VFR
Cloud Levels
  • Few at 7,000' AGL
  • Few at 7,000' AGL
Temperature
25°C / 77°F
Dewpoint
10°C / 50°F
Humidity
39%
Altimeter
29.91" Hg
Pressure
1012.92 hPa